LYBE/BEG METAR and TAF weather

Enter ICAO airport designator
Station Type Date Time Source
LYBE METAR 2019/02/16 03:00 UTC NOAA

LYBE 160300Z 20005KT 4000 BR NSC M00/M02 Q1033 NOSIG


Station Type Date Time Source
LYBE Decoded METAR 2019/02/16 03:00 UTC NOAA

Beograd / Surcin, Serbia and Montenegro (LYBE) 44-49N 020-17E 99M
Feb 15, 2019 - 10:00 PM EST / 2019.02.16 0300 UTC
Wind: from the SSW (200 degrees) at 6 MPH (5 KT):0
Visibility: 2 mile(s):0
Weather: mist
Temperature: 32 F (0 C)
Windchill: 26 F (-3 C):1
Dew Point: 28 F (-2 C)
Relative Humidity: 86%
Pressure (altimeter): 30.50 in. Hg (1033 hPa)
ob: LYBE 160300Z 20005KT 4000 BR NSC M00/M02 Q1033 NOSIG
cycle: 3

Station Type Date Time Source
LYBE TAF 2019/02/15 18:21 UTC NOAA

TAF LYBE 151700Z 1518/1618 35003KT CAVOK TX09/1613Z TN00/1606Z
BECMG 1600/1602 3000 BR PROB30
TEMPO 1604/1607 0800 FG
BECMG 1608/1610 9999 NSW


Example: see airport list